createdAt,value
2023-02-20T00:00:56.765Z,13.39
2023-02-20T00:03:23.935Z,13.38
2023-02-20T00:05:51.342Z,13.34
2023-02-20T00:08:18.355Z,13.30
2023-02-20T00:10:45.289Z,13.29
2023-02-20T00:13:12.217Z,13.28
2023-02-20T00:15:41.786Z,13.30
2023-02-20T00:18:11.400Z,13.27
2023-02-20T00:20:39.057Z,13.26
2023-02-20T00:23:07.073Z,13.23
2023-02-20T00:25:34.110Z,13.19
2023-02-20T00:28:02.099Z,13.15
2023-02-20T00:30:29.125Z,13.14
2023-02-20T00:32:57.743Z,13.12
2023-02-20T00:35:27.595Z,13.13
2023-02-20T00:37:56.122Z,13.14
2023-02-20T00:40:25.339Z,13.12
2023-02-20T00:42:52.401Z,13.09
2023-02-20T00:45:19.611Z,13.06
2023-02-20T00:47:46.871Z,13.01
2023-02-20T00:50:15.633Z,13.00
2023-02-20T00:52:42.575Z,12.97
2023-02-20T00:55:12.085Z,12.96
2023-02-20T00:57:39.540Z,12.94
2023-02-20T01:00:10.813Z,12.92
2023-02-20T01:02:38.955Z,12.91
2023-02-20T01:05:06.305Z,12.91
2023-02-20T01:07:33.533Z,12.90
2023-02-20T01:10:00.450Z,12.89
2023-02-20T01:12:30.628Z,12.89
2023-02-20T01:14:59.979Z,12.91
2023-02-20T01:17:28.811Z,12.88
2023-02-20T01:19:56.110Z,12.86
2023-02-20T01:22:23.384Z,12.86
2023-02-20T01:24:51.144Z,12.83
2023-02-20T01:27:18.156Z,12.78
2023-02-20T01:29:46.437Z,12.75
2023-02-20T01:32:14.658Z,12.73
2023-02-20T01:34:41.752Z,12.71
2023-02-20T01:37:14.426Z,12.68
2023-02-20T01:39:41.648Z,12.61
2023-02-20T01:42:14.992Z,12.58
2023-02-20T01:44:42.491Z,12.51
2023-02-20T01:47:13.183Z,12.44
2023-02-20T01:49:44.903Z,12.40
2023-02-20T01:52:20.248Z,12.43
2023-02-20T01:55:13.083Z,12.38
2023-02-20T01:57:46.476Z,12.35
2023-02-20T02:00:21.517Z,12.31
2023-02-20T02:03:05.020Z,12.25
2023-02-20T02:05:33.897Z,12.26
2023-02-20T02:08:03.854Z,12.26
2023-02-20T02:10:53.472Z,12.23
2023-02-20T02:13:20.952Z,12.22
2023-02-20T02:15:52.112Z,12.22
2023-02-20T02:19:00.875Z,12.23
2023-02-20T02:22:12.893Z,12.20
2023-02-20T02:25:17.710Z,12.09
2023-02-20T02:28:02.582Z,12.11
2023-02-20T02:30:53.641Z,12.04
2023-02-20T02:33:35.673Z,12.06
2023-02-20T02:36:23.465Z,12.00
2023-02-20T02:38:56.047Z,11.99
2023-02-20T02:42:15.853Z,11.95
2023-02-20T02:44:58.233Z,11.94
2023-02-20T02:47:41.898Z,11.89
2023-02-20T02:50:17.361Z,11.91
2023-02-20T02:52:50.820Z,11.85
2023-02-20T02:55:29.837Z,11.84
2023-02-20T02:57:57.333Z,11.86
2023-02-20T03:00:41.336Z,11.88
2023-02-20T03:03:11.028Z,11.87
2023-02-20T03:05:46.519Z,11.85
2023-02-20T03:08:31.393Z,11.85
2023-02-20T03:11:06.794Z,11.85
2023-02-20T03:14:15.550Z,11.84
2023-02-20T03:17:05.145Z,11.79
2023-02-20T03:19:51.871Z,11.82
2023-02-20T03:22:25.552Z,11.79
2023-02-20T03:24:57.154Z,11.74
2023-02-20T03:27:39.210Z,11.77
2023-02-20T03:30:36.842Z,11.76
2023-02-20T03:33:31.455Z,11.78
2023-02-20T03:36:20.593Z,11.73
2023-02-20T03:39:13.209Z,11.71
2023-02-20T03:42:00.851Z,11.69
2023-02-20T03:44:32.530Z,11.70
2023-02-20T03:47:02.975Z,11.65
2023-02-20T03:49:40.383Z,11.67
2023-02-20T03:52:11.904Z,11.68
2023-02-20T03:54:41.054Z,11.65
2023-02-20T03:57:15.701Z,11.66
2023-02-20T03:59:50.735Z,11.64
2023-02-20T04:02:29.883Z,11.62
2023-02-20T04:05:05.404Z,11.59
2023-02-20T04:07:58.185Z,11.62
2023-02-20T04:10:31.251Z,11.58
2023-02-20T04:13:01.249Z,11.54
2023-02-20T04:15:29.454Z,11.52
2023-02-20T04:18:12.176Z,11.52
2023-02-20T04:20:41.169Z,11.48
2023-02-20T04:23:25.954Z,11.47
2023-02-20T04:26:12.355Z,11.49
2023-02-20T04:28:42.257Z,11.48
2023-02-20T04:31:13.255Z,11.47
2023-02-20T04:33:41.713Z,11.48
2023-02-20T04:36:15.836Z,11.46
2023-02-20T04:38:42.988Z,11.40
2023-02-20T04:41:13.677Z,11.41
2023-02-20T04:43:41.238Z,11.38
2023-02-20T04:46:08.331Z,11.39
2023-02-20T04:48:36.478Z,11.36
2023-02-20T04:51:04.121Z,11.38
2023-02-20T04:53:33.239Z,11.36
2023-02-20T04:56:00.218Z,11.33
2023-02-20T04:58:27.955Z,11.31
2023-02-20T05:01:00.876Z,11.30
2023-02-20T05:03:27.879Z,11.29
2023-02-20T05:05:54.890Z,11.30
2023-02-20T05:08:21.814Z,11.27
2023-02-20T05:10:48.684Z,11.24
2023-02-20T05:13:15.542Z,11.20
2023-02-20T05:15:42.396Z,11.18
2023-02-20T05:18:09.291Z,11.14
2023-02-20T05:20:54.920Z,11.12
2023-02-20T05:23:21.795Z,11.10
2023-02-20T05:25:49.116Z,11.09
2023-02-20T05:28:16.060Z,11.10
2023-02-20T05:30:43.003Z,11.06
2023-02-20T05:33:09.971Z,11.08
2023-02-20T05:35:39.880Z,11.08
2023-02-20T05:38:06.940Z,11.09
2023-02-20T05:40:33.767Z,11.11
2023-02-20T05:43:01.158Z,11.10
2023-02-20T05:45:28.082Z,11.10
2023-02-20T05:47:55.119Z,11.10
2023-02-20T05:50:22.103Z,11.11
2023-02-20T05:52:49.042Z,11.11
2023-02-20T05:55:16.077Z,11.07
2023-02-20T05:57:43.122Z,11.04
2023-02-20T06:00:10.781Z,11.02
2023-02-20T06:02:40.850Z,10.94
2023-02-20T06:05:08.130Z,10.85
2023-02-20T06:07:35.878Z,10.80
2023-02-20T06:10:03.911Z,10.77
2023-02-20T06:12:30.866Z,10.74
2023-02-20T06:14:57.762Z,10.74
2023-02-20T06:17:24.689Z,10.71
2023-02-20T06:19:51.734Z,10.80
2023-02-20T06:22:19.452Z,10.81
2023-02-20T06:24:47.951Z,10.80
2023-02-20T06:27:16.403Z,10.78
2023-02-20T06:29:43.878Z,10.75
2023-02-20T06:32:10.863Z,10.81
2023-02-20T06:34:37.945Z,10.82
2023-02-20T06:37:05.687Z,10.87
2023-02-20T06:39:35.824Z,10.88
2023-02-20T06:42:05.624Z,10.88
2023-02-20T06:44:33.428Z,10.96
2023-02-20T06:47:01.046Z,11.04
2023-02-20T06:49:28.456Z,11.06
2023-02-20T06:51:55.616Z,11.29
2023-02-20T06:54:22.577Z,11.63
2023-02-20T06:56:49.697Z,11.87
2023-02-20T06:59:16.786Z,12.40
2023-02-20T07:01:44.203Z,13.01
2023-02-20T07:04:20.213Z,13.54
2023-02-20T07:06:47.561Z,14.18
2023-02-20T07:09:15.732Z,14.70
2023-02-20T07:11:43.258Z,15.22
2023-02-20T07:14:10.292Z,15.75
2023-02-20T07:16:37.289Z,16.36
2023-02-20T07:19:04.405Z,16.95
2023-02-20T07:21:31.356Z,17.39
2023-02-20T07:23:58.298Z,17.94
2023-02-20T07:26:28.212Z,18.49
2023-02-20T07:28:58.542Z,19.02
2023-02-20T07:31:26.089Z,19.54
2023-02-20T07:33:53.166Z,19.90
2023-02-20T07:36:20.660Z,20.32
2023-02-20T07:39:01.752Z,20.75
2023-02-20T07:41:32.221Z,21.11
2023-02-20T07:43:59.423Z,21.49
2023-02-20T07:46:26.435Z,21.97
2023-02-20T07:48:53.411Z,22.51
2023-02-20T07:51:20.361Z,22.78
2023-02-20T07:53:51.551Z,23.32
2023-02-20T07:56:20.429Z,23.76
2023-02-20T07:58:48.842Z,24.09
2023-02-20T08:01:15.927Z,24.51
2023-02-20T08:03:43.106Z,24.85
2023-02-20T08:06:10.157Z,25.37
2023-02-20T08:08:37.057Z,25.70
2023-02-20T08:11:09.555Z,26.09
2023-02-20T08:13:37.542Z,26.59
2023-02-20T08:16:04.800Z,27.02
2023-02-20T08:18:31.753Z,27.47
2023-02-20T08:20:58.651Z,27.89
2023-02-20T08:23:26.033Z,28.31
2023-02-20T08:25:53.039Z,28.76
2023-02-20T08:28:21.012Z,29.29
2023-02-20T08:30:48.452Z,29.52
2023-02-20T08:33:15.796Z,30.14
2023-02-20T08:35:42.953Z,30.64
2023-02-20T08:38:31.160Z,31.25
2023-02-20T08:40:58.487Z,31.61
2023-02-20T08:43:27.883Z,32.02
2023-02-20T08:45:55.414Z,32.47
2023-02-20T08:48:22.622Z,32.77
2023-02-20T08:50:49.571Z,33.04
2023-02-20T08:53:16.727Z,32.99
2023-02-20T08:55:43.779Z,33.45
2023-02-20T08:58:11.334Z,33.85
2023-02-20T09:00:38.837Z,34.51
2023-02-20T09:03:09.126Z,33.84
2023-02-20T09:05:38.196Z,34.22
2023-02-20T09:08:06.216Z,33.84
2023-02-20T09:10:33.215Z,34.36
2023-02-20T09:13:00.384Z,34.99
2023-02-20T09:15:27.429Z,33.79
2023-02-20T09:17:54.521Z,33.74
2023-02-20T09:20:22.630Z,33.75
2023-02-20T09:22:57.417Z,32.70
2023-02-20T09:25:24.317Z,33.05
2023-02-20T09:27:51.396Z,31.98
2023-02-20T09:30:21.185Z,31.66
2023-02-20T09:32:50.418Z,32.23
2023-02-20T09:35:27.695Z,32.24
2023-02-20T09:37:55.084Z,32.05
2023-02-20T09:40:25.313Z,33.16
2023-02-20T09:42:57.986Z,32.10
2023-02-20T09:45:31.763Z,32.17
2023-02-20T09:47:58.821Z,31.48
2023-02-20T09:50:44.011Z,31.49
2023-02-20T09:53:40.914Z,30.92
2023-02-20T09:56:16.232Z,30.70
2023-02-20T09:58:59.701Z,31.00
2023-02-20T10:01:28.398Z,29.97
2023-02-20T10:04:01.434Z,29.36
2023-02-20T10:06:36.462Z,29.26
2023-02-20T10:09:04.996Z,28.98
2023-02-20T10:11:58.446Z,28.27
2023-02-20T10:14:40.629Z,29.04
2023-02-20T10:17:13.687Z,28.74
2023-02-20T10:19:58.648Z,28.35
2023-02-20T10:22:25.625Z,28.45
2023-02-20T10:25:04.309Z,28.53
2023-02-20T10:27:55.462Z,28.59
2023-02-20T10:30:32.574Z,28.60
2023-02-20T10:33:05.568Z,28.38
2023-02-20T10:35:42.000Z,27.35
2023-02-20T10:38:14.140Z,27.04
2023-02-20T10:40:48.757Z,26.82
2023-02-20T10:43:21.415Z,27.11
2023-02-20T10:45:58.601Z,26.64
2023-02-20T10:48:30.339Z,26.36
2023-02-20T10:51:03.260Z,25.59
2023-02-20T10:53:39.066Z,26.30
2023-02-20T10:56:09.008Z,26.92
2023-02-20T10:59:00.308Z,27.71
2023-02-20T11:01:29.188Z,27.62
2023-02-20T11:04:11.176Z,27.34
2023-02-20T11:06:54.800Z,26.81
2023-02-20T11:09:23.472Z,27.34
2023-02-20T11:11:50.426Z,28.15
2023-02-20T11:14:40.040Z,28.09
2023-02-20T11:17:14.608Z,27.06
2023-02-20T11:19:53.652Z,26.24
2023-02-20T11:22:38.905Z,26.31
2023-02-20T11:25:30.368Z,26.57
2023-02-20T11:28:22.373Z,26.23
2023-02-20T11:31:00.728Z,25.32
2023-02-20T11:33:31.613Z,24.81
2023-02-20T11:36:10.196Z,23.10
2023-02-20T11:38:38.074Z,22.29
2023-02-20T11:41:07.656Z,21.72
2023-02-20T11:43:43.673Z,21.53
2023-02-20T11:46:17.297Z,20.76
2023-02-20T11:49:05.735Z,20.15
2023-02-20T11:51:44.568Z,19.86
2023-02-20T11:54:16.035Z,19.41
2023-02-20T11:57:27.435Z,18.98
2023-02-20T12:00:09.723Z,18.81
2023-02-20T12:02:52.702Z,18.28
2023-02-20T12:05:21.751Z,18.27
2023-02-20T12:07:58.364Z,18.32
2023-02-20T12:10:38.044Z,18.23
2023-02-20T12:13:07.134Z,18.36
2023-02-20T12:15:34.076Z,18.16
2023-02-20T12:18:23.086Z,17.79
2023-02-20T12:21:05.631Z,17.81
2023-02-20T12:23:57.590Z,17.49
2023-02-20T12:26:54.029Z,17.34
2023-02-20T12:29:38.341Z,16.84
2023-02-20T12:32:16.054Z,17.11
2023-02-20T12:34:46.129Z,17.07
2023-02-20T12:37:49.224Z,16.99
2023-02-20T12:40:19.145Z,16.86
2023-02-20T12:43:23.749Z,16.69
2023-02-20T12:46:09.718Z,17.04
2023-02-20T12:49:06.905Z,16.78
2023-02-20T12:51:58.535Z,16.57
2023-02-20T12:55:02.821Z,16.60
2023-02-20T12:57:51.261Z,16.76
2023-02-20T13:00:30.286Z,16.80
2023-02-20T13:03:08.982Z,16.70
2023-02-20T13:05:40.156Z,16.80
2023-02-20T13:08:31.434Z,16.62
2023-02-20T13:10:59.920Z,16.83
2023-02-20T13:13:40.215Z,16.61
2023-02-20T13:16:13.307Z,16.77
2023-02-20T13:18:49.485Z,16.82
2023-02-20T13:21:18.748Z,17.02
2023-02-20T13:23:46.304Z,16.73
2023-02-20T13:26:34.857Z,16.56
2023-02-20T13:29:17.098Z,16.78
2023-02-20T13:31:54.593Z,16.64
2023-02-20T13:34:28.460Z,16.53
2023-02-20T13:36:55.449Z,16.77
2023-02-20T13:39:25.533Z,16.31
2023-02-20T13:41:58.271Z,16.08
2023-02-20T13:44:28.105Z,16.26
2023-02-20T13:46:56.293Z,16.09
2023-02-20T13:49:44.784Z,16.08
2023-02-20T13:52:32.305Z,16.17
2023-02-20T13:55:10.849Z,16.30
2023-02-20T13:58:02.805Z,16.56
2023-02-20T14:01:06.024Z,16.71
2023-02-20T14:03:35.489Z,16.33
2023-02-20T14:06:10.155Z,16.31
2023-02-20T14:08:41.904Z,16.30
2023-02-20T14:11:30.694Z,16.54
2023-02-20T14:14:00.449Z,16.64
2023-02-20T14:16:31.564Z,16.39
2023-02-20T14:19:08.865Z,16.32
2023-02-20T14:21:36.902Z,16.55
2023-02-20T14:24:19.530Z,16.40
2023-02-20T14:26:47.748Z,16.44
2023-02-20T14:29:30.658Z,16.45
2023-02-20T14:31:59.589Z,16.44
2023-02-20T14:34:41.286Z,16.37
2023-02-20T14:37:15.135Z,16.02
2023-02-20T14:40:05.207Z,15.98
2023-02-20T14:42:32.618Z,16.23
2023-02-20T14:45:02.999Z,16.17
2023-02-20T14:47:31.972Z,16.06
2023-02-20T14:50:17.095Z,16.01
2023-02-20T14:52:44.385Z,15.73
2023-02-20T14:55:20.136Z,15.86
2023-02-20T14:57:50.391Z,15.94
2023-02-20T15:00:17.468Z,15.99
2023-02-20T15:02:53.209Z,16.08
2023-02-20T15:05:32.348Z,15.94
2023-02-20T15:08:16.004Z,16.03
2023-02-20T15:10:46.826Z,16.01
2023-02-20T15:13:16.531Z,15.73
2023-02-20T15:15:47.220Z,15.53
2023-02-20T15:18:35.054Z,15.60
2023-02-20T15:21:02.627Z,15.31
2023-02-20T15:23:36.861Z,15.41
2023-02-20T15:26:29.960Z,15.37
2023-02-20T15:29:18.817Z,15.36
2023-02-20T15:31:54.102Z,15.23
2023-02-20T15:34:26.071Z,15.28
2023-02-20T15:36:53.639Z,15.40
2023-02-20T15:39:21.214Z,15.53
2023-02-20T15:41:48.855Z,15.52
2023-02-20T15:44:20.232Z,15.40
2023-02-20T15:46:47.572Z,15.45
2023-02-20T15:49:20.401Z,15.32
2023-02-20T15:51:52.492Z,15.33
2023-02-20T15:54:21.848Z,15.28
2023-02-20T15:56:48.831Z,15.32
2023-02-20T15:59:15.774Z,15.18
2023-02-20T16:01:42.748Z,15.20
2023-02-20T16:04:15.788Z,15.25
2023-02-20T16:06:43.677Z,15.14
2023-02-20T16:09:11.022Z,15.11
2023-02-20T16:11:44.912Z,14.98
2023-02-20T16:14:15.073Z,14.91
2023-02-20T16:16:45.085Z,14.86
2023-02-20T16:19:16.460Z,14.68
2023-02-20T16:21:58.207Z,14.84
2023-02-20T16:24:26.378Z,14.64
2023-02-20T16:26:53.759Z,14.66
2023-02-20T16:29:26.091Z,14.75
2023-02-20T16:31:54.869Z,14.67
2023-02-20T16:34:24.004Z,14.57
2023-02-20T16:36:51.872Z,14.68
2023-02-20T16:39:26.270Z,14.59
2023-02-20T16:41:55.468Z,14.58
2023-02-20T16:44:40.327Z,14.61
2023-02-20T16:47:10.301Z,14.46
2023-02-20T16:49:38.957Z,14.37
2023-02-20T16:52:18.014Z,14.36
2023-02-20T16:54:49.940Z,14.36
2023-02-20T16:57:18.981Z,14.35
2023-02-20T16:59:46.170Z,14.38
2023-02-20T17:02:19.542Z,14.43
2023-02-20T17:04:47.383Z,14.44
2023-02-20T17:07:15.198Z,14.33
2023-02-20T17:09:45.158Z,14.36
2023-02-20T17:12:18.047Z,14.33
2023-02-20T17:14:45.885Z,14.28
2023-02-20T17:17:14.114Z,14.19
2023-02-20T17:19:42.602Z,14.26
2023-02-20T17:22:10.660Z,14.19
2023-02-20T17:24:41.534Z,14.27
2023-02-20T17:27:09.358Z,14.23
2023-02-20T17:29:36.287Z,14.29
2023-02-20T17:32:04.551Z,14.29
2023-02-20T17:34:31.635Z,14.21
2023-02-20T17:36:58.635Z,14.25
2023-02-20T17:39:26.091Z,14.26
2023-02-20T17:41:55.246Z,14.28
2023-02-20T17:44:33.500Z,14.28
2023-02-20T17:47:01.317Z,14.21
2023-02-20T17:49:28.666Z,14.26
2023-02-20T17:52:00.465Z,14.27
2023-02-20T17:54:29.546Z,14.23
2023-02-20T17:56:56.399Z,14.21
2023-02-20T17:59:24.451Z,14.16
2023-02-20T18:01:51.941Z,14.12
2023-02-20T18:04:21.183Z,14.19
2023-02-20T18:06:48.631Z,14.17
2023-02-20T18:09:18.454Z,14.07
2023-02-20T18:11:46.540Z,14.11
2023-02-20T18:14:14.232Z,14.05
2023-02-20T18:16:41.434Z,14.06
2023-02-20T18:19:10.632Z,14.10
2023-02-20T18:21:40.668Z,13.99
2023-02-20T18:24:11.961Z,14.00
2023-02-20T18:26:39.016Z,14.01
2023-02-20T18:29:06.114Z,14.07
2023-02-20T18:31:33.580Z,14.04
2023-02-20T18:34:02.047Z,14.08
2023-02-20T18:36:29.911Z,14.04
2023-02-20T18:38:57.712Z,14.01
2023-02-20T18:41:26.021Z,14.02
2023-02-20T18:43:53.022Z,13.98
2023-02-20T18:46:29.603Z,14.04
2023-02-20T18:48:58.960Z,14.07
2023-02-20T18:51:28.089Z,14.09
2023-02-20T18:53:55.424Z,14.14
2023-02-20T18:56:24.132Z,14.14
2023-02-20T18:58:51.320Z,14.13
2023-02-20T19:01:20.832Z,14.13
2023-02-20T19:03:49.000Z,14.07
2023-02-20T19:06:46.588Z,14.03
2023-02-20T19:09:24.581Z,14.07
2023-02-20T19:11:53.712Z,14.10
2023-02-20T19:14:22.327Z,14.12
2023-02-20T19:16:50.295Z,14.18
2023-02-20T19:19:24.164Z,14.16
2023-02-20T19:21:53.092Z,14.17
2023-02-20T19:24:21.103Z,14.17
2023-02-20T19:26:48.112Z,14.15
2023-02-20T19:29:15.102Z,14.21
2023-02-20T19:31:42.189Z,14.30
2023-02-20T19:34:10.067Z,14.32
2023-02-20T19:36:41.470Z,14.40
2023-02-20T19:39:09.814Z,14.40
2023-02-20T19:41:38.134Z,14.47
2023-02-20T19:44:06.124Z,14.50
2023-02-20T19:46:33.538Z,14.52
2023-02-20T19:49:00.450Z,14.50
2023-02-20T19:51:27.486Z,14.51
2023-02-20T19:53:54.455Z,14.51
2023-02-20T19:58:49.959Z,14.53
2023-02-20T20:01:19.675Z,14.50
2023-02-20T20:03:47.522Z,14.50
2023-02-20T20:06:16.879Z,14.50
2023-02-20T20:09:09.405Z,14.50
2023-02-20T20:11:31.736Z,14.48
2023-02-20T20:13:59.119Z,14.50
2023-02-20T20:16:26.120Z,14.50
2023-02-20T20:18:53.624Z,14.45
2023-02-20T20:21:21.472Z,14.34
2023-02-20T20:23:48.410Z,14.39
2023-02-20T20:26:15.742Z,14.37
2023-02-20T20:28:42.795Z,14.45
2023-02-20T20:31:09.788Z,14.45
2023-02-20T20:33:36.904Z,14.45
2023-02-20T20:36:04.247Z,14.46
2023-02-20T20:38:31.185Z,14.47
2023-02-20T20:40:58.531Z,14.50
2023-02-20T20:43:25.461Z,14.50
2023-02-20T20:45:52.411Z,14.43
2023-02-20T20:48:19.366Z,14.44
2023-02-20T20:50:46.368Z,14.43
2023-02-20T20:53:13.465Z,14.43
2023-02-20T20:55:40.401Z,14.42
2023-02-20T20:58:07.650Z,14.43
2023-02-20T21:00:35.887Z,14.43
2023-02-20T21:03:05.261Z,14.43
2023-02-20T21:05:34.135Z,14.42
2023-02-20T21:08:08.385Z,14.43
2023-02-20T21:10:37.505Z,14.43
2023-02-20T21:13:05.274Z,14.43
2023-02-20T21:15:35.881Z,14.44
2023-02-20T21:18:06.231Z,14.44
2023-02-20T21:20:35.821Z,14.38
2023-02-20T21:23:04.968Z,14.33
2023-02-20T21:25:31.994Z,14.32
2023-02-20T21:27:58.900Z,14.30
2023-02-20T21:30:27.442Z,14.26
2023-02-20T21:32:54.977Z,14.18
2023-02-20T21:35:23.505Z,14.18
2023-02-20T21:37:50.512Z,14.18
2023-02-20T21:40:20.632Z,14.15
2023-02-20T21:43:08.571Z,14.15
2023-02-20T21:45:36.567Z,14.13
2023-02-20T21:48:04.642Z,14.11
2023-02-20T21:50:32.673Z,14.09
2023-02-20T21:53:00.283Z,14.07
2023-02-20T21:55:32.784Z,14.03
2023-02-20T21:58:02.947Z,14.02
2023-02-20T22:00:29.811Z,13.97
2023-02-20T22:02:56.915Z,13.92
2023-02-20T22:05:23.841Z,13.91
2023-02-20T22:08:09.265Z,13.85
2023-02-20T22:10:54.701Z,13.85
2023-02-20T22:13:42.185Z,13.78
2023-02-20T22:16:27.576Z,13.76
2023-02-20T22:19:14.663Z,13.74
2023-02-20T22:22:00.482Z,13.71
2023-02-20T22:24:46.998Z,13.67
2023-02-20T22:27:32.526Z,13.63
2023-02-20T22:30:18.757Z,13.62
2023-02-20T22:33:04.419Z,13.59
2023-02-20T22:35:49.725Z,13.57
2023-02-20T22:38:35.470Z,13.54
2023-02-20T22:41:23.457Z,13.52
2023-02-20T22:44:09.315Z,13.51
2023-02-20T22:46:54.987Z,13.48
2023-02-20T22:49:42.996Z,13.42
2023-02-20T22:52:28.852Z,13.41
2023-02-20T22:55:14.428Z,13.25
2023-02-20T22:58:00.351Z,13.31
2023-02-20T23:00:45.788Z,13.29
2023-02-20T23:03:31.479Z,13.23
2023-02-20T23:06:18.971Z,13.27
2023-02-20T23:09:09.022Z,13.26
2023-02-20T23:11:56.129Z,13.27
2023-02-20T23:14:41.764Z,13.24
2023-02-20T23:17:37.291Z,13.19
2023-02-20T23:20:32.330Z,13.19
2023-02-20T23:23:18.544Z,13.19
2023-02-20T23:26:04.733Z,13.21
2023-02-20T23:28:50.356Z,13.19
2023-02-20T23:31:36.556Z,13.20
2023-02-20T23:34:22.642Z,13.20
2023-02-20T23:37:11.866Z,13.19
2023-02-20T23:39:57.533Z,13.15
2023-02-20T23:42:43.341Z,13.15
2023-02-20T23:45:29.507Z,13.13
2023-02-20T23:48:15.022Z,13.12
2023-02-20T23:51:00.712Z,13.07
2023-02-20T23:53:46.497Z,13.06
2023-02-20T23:56:32.031Z,13.06
2023-02-20T23:59:17.453Z,13.01
